Time;durP1;ratioP1;P1;durP2;ratioP2;P2;SDS_P1;SDS_P2;PMS_P1;PMS_P2;Temp;Humidity;BMP_temperature;BMP_pressure;BME280_temperature;BME280_humidity;BME280_pressure;Samples;Min_cycle;Max_cycle;Signal;HPM_P1;HPM_P2
2021/08/11 00:00:29;;;;;;;20.50;9.27;;;;;;;12.66;100.00;101723.59;5069765;28;20017;-66
2021/08/11 00:02:54;;;;;;;22.50;10.10;;;;;;;12.72;100.00;101723.63;5073727;28;20111;-66
2021/08/11 00:05:19;;;;;;;21.40;9.13;;;;;;;12.68;100.00;101719.16;5073983;28;20115;-63
2021/08/11 00:07:45;;;;;;;20.60;8.90;;;;;;;12.60;100.00;101718.22;5073633;28;20047;-66
2021/08/11 00:10:10;;;;;;;22.30;8.43;;;;;;;12.52;100.00;101715.47;5073638;28;20028;-65
2021/08/11 00:12:36;;;;;;;20.75;8.68;;;;;;;12.49;100.00;101718.97;5073996;28;20021;-63
2021/08/11 00:15:03;;;;;;;21.88;9.23;;;;;;;12.48;100.00;101713.66;5073723;28;20024;-64
2021/08/11 00:17:28;;;;;;;22.10;9.80;;;;;;;12.45;100.00;101718.94;5073817;28;20442;-66
2021/08/11 00:19:53;;;;;;;22.63;9.50;;;;;;;12.37;100.00;101722.38;5073380;28;20083;-65
2021/08/11 00:22:19;;;;;;;172.32;20.35;;;;;;;12.41;100.00;101723.34;5073592;28;20494;-65
2021/08/11 00:24:44;;;;;;;27.27;14.13;;;;;;;12.37;100.00;101724.16;5073426;28;20028;-63
2021/08/11 00:27:09;;;;;;;25.10;12.05;;;;;;;12.32;100.00;101720.56;5073662;28;20058;-65
2021/08/11 00:29:35;;;;;;;25.30;11.82;;;;;;;12.30;100.00;101719.66;5073381;28;20025;-63
2021/08/11 00:32:00;;;;;;;26.58;12.70;;;;;;;12.38;100.00;101724.19;5073460;28;20111;-63
2021/08/11 00:34:27;;;;;;;27.60;14.40;;;;;;;12.49;100.00;101720.75;5073279;28;20024;-65
2021/08/11 00:36:53;;;;;;;30.48;13.80;;;;;;;12.50;100.00;101726.06;5073182;28;20055;-63
2021/08/11 00:39:18;;;;;;;35.05;18.45;;;;;;;12.75;100.00;101728.09;5073270;28;20040;-65
2021/08/11 00:41:46;;;;;;;37.45;19.45;;;;;;;12.86;100.00;101724.66;5073194;28;20074;-65
2021/08/11 00:44:13;;;;;;;31.48;15.68;;;;;;;12.88;100.00;101717.56;5072985;28;20463;-65
2021/08/11 00:46:43;;;;;;;27.73;12.10;;;;;;;12.79;100.00;101728.13;5073244;28;20024;-66
2021/08/11 00:49:16;;;;;;;31.60;13.80;;;;;;;12.81;100.00;101723.72;5072997;28;20032;-65
2021/08/11 00:51:42;;;;;;;34.10;13.90;;;;;;;12.71;100.00;101720.09;5073025;28;20029;-64
2021/08/11 00:54:09;;;;;;;34.42;16.50;;;;;;;12.75;100.00;101723.66;5072978;28;20040;-64
2021/08/11 00:56:38;;;;;;;34.97;14.55;;;;;;;12.67;100.00;101722.72;5072868;28;20025;-64
2021/08/11 00:59:05;;;;;;;35.90;16.33;;;;;;;12.73;100.00;101733.38;5069326;28;20032;-64
2021/08/11 01:01:32;;;;;;;34.30;16.55;;;;;;;12.76;100.00;101725.44;5069299;28;20032;-63
2021/08/11 01:03:59;;;;;;;34.30;16.55;;;;;;;12.84;100.00;101718.47;5072722;28;20107;-63
2021/08/11 01:06:25;;;;;;;36.50;16.88;;;;;;;12.97;100.00;101722.06;5072722;28;20420;-64
2021/08/11 01:08:54;;;;;;;39.50;16.17;;;;;;;12.95;100.00;101725.63;5072442;28;20445;-65
2021/08/11 01:11:21;;;;;;;30.40;15.48;;;;;;;12.94;100.00;101723.84;5072809;28;20103;-63
2021/08/11 01:13:47;;;;;;;34.65;16.33;;;;;;;12.97;100.00;101729.16;5072574;28;20078;-64
2021/08/11 01:16:13;;;;;;;35.92;16.85;;;;;;;12.96;100.00;101725.63;5072669;28;20024;-63
2021/08/11 01:18:38;;;;;;;32.92;16.40;;;;;;;13.00;100.00;101723.88;5072675;28;20448;-65
2021/08/11 01:21:09;;;;;;;40.28;16.15;;;;;;;13.08;100.00;101719.53;5072527;28;20051;-64
2021/08/11 01:23:55;;;;;;;46.30;17.02;;;;;;;13.13;100.00;101722.22;5068863;28;20378;-65
2021/08/11 01:26:42;;;;;;;37.63;17.52;;;;;;;13.20;100.00;101722.25;5072765;28;20031;-66
2021/08/11 01:29:26;;;;;;;41.55;15.50;;;;;;;13.27;100.00;101722.34;5069437;28;20031;-65
2021/08/11 01:32:06;;;;;;;53.10;16.98;;;;;;;13.32;100.00;101724.09;5072642;28;20111;-65
2021/08/11 01:34:40;;;;;;;45.38;16.35;;;;;;;13.24;100.00;101720.53;5068782;28;20028;-63
2021/08/11 01:37:09;;;;;;;50.10;17.55;;;;;;;13.25;100.00;101724.94;5069175;28;20033;-63
2021/08/11 01:39:49;;;;;;;43.08;15.75;;;;;;;13.16;100.00;101719.56;5072363;28;20040;-65
2021/08/11 01:42:19;;;;;;;49.17;16.85;;;;;;;13.07;100.00;101721.28;5070072;28;20036;-65
2021/08/11 01:44:52;;;;;;;41.45;15.75;;;;;;;13.04;100.00;101721.25;5072622;28;20060;-64
2021/08/11 01:47:21;;;;;;;41.92;16.05;;;;;;;12.97;100.00;101727.38;5072429;28;20056;-65
2021/08/11 01:49:49;;;;;;;40.17;16.15;;;;;;;12.91;100.00;101722.03;5072445;28;20051;-65
2021/08/11 01:52:15;;;;;;;35.17;16.10;;;;;;;12.75;100.00;101722.78;5072407;28;20511;-65
2021/08/11 01:54:43;;;;;;;32.35;15.05;;;;;;;12.64;100.00;101722.66;5072498;28;20371;-65
2021/08/11 01:57:10;;;;;;;30.30;14.55;;;;;;;12.52;100.00;101726.09;5072611;28;20407;-65
2021/08/11 01:59:37;;;;;;;31.25;14.57;;;;;;;12.38;100.00;101723.31;5072159;28;20475;-65
2021/08/11 02:02:02;;;;;;;25.90;12.82;;;;;;;12.34;100.00;101725.00;5072312;28;20025;-67
2021/08/11 02:04:29;;;;;;;26.80;13.27;;;;;;;12.27;100.00;101730.25;5072198;28;20388;-64
2021/08/11 02:06:56;;;;;;;27.42;13.88;;;;;;;12.19;100.00;101720.44;5072140;28;20070;-66
2021/08/11 02:09:22;;;;;;;26.23;14.52;;;;;;;12.13;100.00;101717.72;5072194;28;20024;-64
2021/08/11 02:11:48;;;;;;;26.40;13.98;;;;;;;12.08;100.00;101713.22;5072351;28;20490;-64
2021/08/11 02:14:14;;;;;;;24.85;14.05;;;;;;;12.05;100.00;101711.44;5072287;28;20028;-64
2021/08/11 02:16:42;;;;;;;27.98;15.40;;;;;;;12.18;100.00;101716.00;5072413;28;20426;-65
2021/08/11 02:19:09;;;;;;;30.10;15.57;;;;;;;12.20;100.00;101716.00;5073262;28;20017;-65
2021/08/11 02:21:35;;;;;;;27.58;15.45;;;;;;;12.18;100.00;101713.34;5075823;28;20127;-67
2021/08/11 02:24:02;;;;;;;27.15;14.55;;;;;;;12.24;100.00;101712.53;5070440;28;20569;-65
2021/08/11 02:26:40;;;;;;;27.90;15.07;;;;;;;12.21;100.00;101715.16;5075824;28;20025;-66
2021/08/11 02:29:16;;;;;;;33.30;15.85;;;;;;;12.18;100.00;101710.69;5072196;28;20043;-65
2021/08/11 02:32:08;;;;;;;32.78;15.98;;;;;;;12.19;100.00;101712.47;5073085;28;20031;-65
2021/08/11 02:34:54;;;;;;;35.92;14.65;;;;;;;12.10;100.00;101712.38;4994191;28;20053;-66
2021/08/11 02:37:27;;;;;;;33.83;14.75;;;;;;;12.09;100.00;101721.19;4988810;28;20038;-67
2021/08/11 02:40:15;;;;;;;;;;;;;;;12.10;100.00;101712.38;4994592;28;20038;-63
2021/08/11 02:42:44;;;;;;;36.15;15.35;;;;;;;12.01;100.00;101707.88;4987404;28;19909;-66
2021/08/11 02:45:15;;;;;;;31.88;16.17;;;;;;;11.97;100.00;101710.44;4993866;28;20484;-66
2021/08/11 02:47:42;;;;;;;27.52;15.07;;;;;;;11.93;100.00;101703.31;4994043;28;20041;-66
2021/08/11 02:50:09;;;;;;;26.52;13.85;;;;;;;11.87;100.00;101704.13;4994057;28;20029;-65
2021/08/11 02:52:36;;;;;;;27.65;13.82;;;;;;;11.82;100.00;101716.41;4993904;28;20046;-63
2021/08/11 02:55:02;;;;;;;35.72;15.15;;;;;;;11.77;100.00;101720.75;4990179;28;20057;-63
2021/08/11 02:57:29;;;;;;;41.85;16.30;;;;;;;11.84;100.00;101710.25;4993755;28;20022;-65
2021/08/11 02:59:56;;;;;;;39.92;15.57;;;;;;;11.81;100.00;101715.53;4993560;28;20034;-63
2021/08/11 03:02:22;;;;;;;45.25;17.30;;;;;;;11.76;100.00;101714.56;4993788;28;20035;-63
2021/08/11 03:04:48;;;;;;;40.13;18.30;;;;;;;11.82;100.00;101721.69;4993571;28;20034;-63
2021/08/11 03:07:14;;;;;;;36.88;17.10;;;;;;;11.72;100.00;101718.03;4993603;28;20456;-63
2021/08/11 03:09:39;;;;;;;51.05;19.00;;;;;;;11.80;100.00;101723.44;4993854;28;20118;-63
2021/08/11 03:12:10;;;;;;;63.20;19.92;;;;;;;11.87;100.00;101725.31;5055279;28;20490;-63
2021/08/11 03:14:38;;;;;;;57.97;20.35;;;;;;;11.93;100.00;101720.13;5071572;28;20086;-63
2021/08/11 03:17:08;;;;;;;60.50;20.85;;;;;;;12.05;100.00;101719.38;5071089;28;20479;-63
2021/08/11 03:19:33;;;;;;;47.13;20.50;;;;;;;12.09;100.00;101715.91;5071061;28;20119;-63
2021/08/11 03:21:59;;;;;;;77.78;22.13;;;;;;;12.10;100.00;101728.28;5074670;28;20515;-63
2021/08/11 03:24:24;;;;;;;53.00;21.05;;;;;;;12.17;100.00;101719.53;5075013;28;20033;-64
2021/08/11 03:26:49;;;;;;;50.53;20.40;;;;;;;12.17;100.00;101713.31;5074663;28;20028;-65
2021/08/11 03:29:15;;;;;;;43.72;19.48;;;;;;;12.17;100.00;101718.63;5074557;28;20529;-64
2021/08/11 03:31:40;;;;;;;48.17;18.67;;;;;;;12.02;100.00;101722.00;5074554;28;20036;-64
2021/08/11 03:34:05;;;;;;;39.83;17.50;;;;;;;12.05;100.00;101713.19;5074429;28;20056;-67
2021/08/11 03:36:31;;;;;;;48.58;17.98;;;;;;;11.92;100.00;101718.28;5074642;28;20035;-67
2021/08/11 03:38:56;;;;;;;40.47;16.63;;;;;;;11.86;100.00;101711.16;5074604;28;20029;-67
2021/08/11 03:41:21;;;;;;;37.63;18.13;;;;;;;11.93;100.00;101711.25;5074379;28;20027;-67
2021/08/11 03:43:47;;;;;;;32.90;17.63;;;;;;;11.93;100.00;101711.25;5074248;28;20028;-66
2021/08/11 03:46:12;;;;;;;37.22;16.95;;;;;;;11.84;100.00;101710.25;5074338;28;20025;-67
2021/08/11 03:48:38;;;;;;;34.90;17.25;;;;;;;11.79;100.00;101706.66;5074444;28;20041;-67
2021/08/11 03:51:03;;;;;;;32.97;16.65;;;;;;;11.78;100.00;101709.28;5074563;28;20021;-67
2021/08/11 03:53:29;;;;;;;31.52;16.15;;;;;;;11.73;100.00;101711.88;5074049;28;20418;-67
2021/08/11 03:55:54;;;;;;;34.38;17.88;;;;;;;11.75;100.00;101707.50;5074273;28;20035;-67
2021/08/11 03:58:19;;;;;;;32.75;17.23;;;;;;;11.73;100.00;101714.53;5074213;28;20107;-67
2021/08/11 04:00:45;;;;;;;32.20;16.90;;;;;;;11.72;100.00;101719.81;5073929;28;20071;-66
2021/08/11 04:03:11;;;;;;;39.45;17.33;;;;;;;11.68;100.00;101724.19;5074039;28;20415;-67
2021/08/11 04:05:36;;;;;;;35.00;16.33;;;;;;;11.71;100.00;101725.97;5074198;28;20063;-67
2021/08/11 04:08:02;;;;;;;40.67;18.08;;;;;;;11.79;100.00;101733.13;5069711;28;20021;-67
2021/08/11 04:10:27;;;;;;;52.17;18.95;;;;;;;11.83;100.00;101736.72;5073905;28;20380;-67
2021/08/11 04:12:52;;;;;;;42.10;18.05;;;;;;;11.95;100.00;101736.91;5073796;28;20179;-67
2021/08/11 04:15:17;;;;;;;40.47;18.73;;;;;;;12.00;100.00;101727.28;5073598;28;20064;-67
2021/08/11 04:17:43;;;;;;;39.33;18.88;;;;;;;11.98;100.00;101734.28;5073795;28;20032;-66
2021/08/11 04:20:09;;;;;;;36.85;17.50;;;;;;;11.92;100.00;101738.63;5073576;28;20044;-65
2021/08/11 04:22:34;;;;;;;34.60;17.00;;;;;;;12.03;100.00;101737.03;5073861;28;20028;-65
2021/08/11 04:25:00;;;;;;;38.58;17.00;;;;;;;12.04;100.00;101725.53;5073655;28;20035;-65
2021/08/11 04:27:25;;;;;;;39.45;17.38;;;;;;;12.13;100.00;101728.31;5073679;28;20024;-65
2021/08/11 04:29:50;;;;;;;39.20;17.77;;;;;;;12.13;100.00;101730.97;5073389;28;20016;-66
2021/08/11 04:32:16;;;;;;;38.58;17.85;;;;;;;12.15;100.00;101725.69;5073546;28;20104;-66
2021/08/11 04:34:41;;;;;;;42.60;18.38;;;;;;;12.16;100.00;101733.66;5073138;28;20063;-65
2021/08/11 04:37:07;;;;;;;42.05;18.92;;;;;;;12.23;100.00;101724.00;5073180;28;20032;-65
2021/08/11 04:39:33;;;;;;;42.85;19.20;;;;;;;12.28;100.00;101737.31;5073553;28;20028;-65
2021/08/11 04:41:58;;;;;;;37.28;18.10;;;;;;;12.34;100.00;101735.63;5072678;28;20028;-65
2021/08/11 04:44:24;;;;;;;42.60;17.65;;;;;;;12.35;100.00;101736.53;5073234;28;20033;-65
2021/08/11 04:46:49;;;;;;;40.95;18.58;;;;;;;12.32;100.00;101740.03;5073198;28;20387;-65
2021/08/11 04:49:14;;;;;;;45.70;18.13;;;;;;;12.36;100.00;101747.16;5072805;28;20035;-65
2021/08/11 04:51:40;;;;;;;44.47;18.38;;;;;;;12.40;100.00;101741.88;5073151;28;20066;-64
2021/08/11 04:54:05;;;;;;;42.00;19.35;;;;;;;12.48;100.00;101756.09;5073230;28;20100;-65
2021/08/11 04:56:30;;;;;;;37.10;19.02;;;;;;;12.55;100.00;101753.53;5072817;28;20024;-65
2021/08/11 04:58:56;;;;;;;32.88;18.10;;;;;;;12.65;100.00;101757.16;5072826;28;20021;-65
2021/08/11 05:01:21;;;;;;;32.63;17.35;;;;;;;12.70;100.00;101758.09;5073127;28;20421;-65
2021/08/11 05:03:46;;;;;;;34.17;17.58;;;;;;;12.75;100.00;101758.16;5072595;28;20514;-65
2021/08/11 05:06:12;;;;;;;36.97;17.50;;;;;;;12.77;100.00;101756.41;5072859;28;20360;-66
2021/08/11 05:08:38;;;;;;;32.33;17.73;;;;;;;12.79;100.00;101765.25;5072681;28;20052;-67
2021/08/11 05:11:04;;;;;;;30.75;17.30;;;;;;;12.81;100.00;101768.81;5072672;28;20502;-67
2021/08/11 05:13:30;;;;;;;33.53;18.27;;;;;;;12.78;100.00;101771.44;5073190;28;20424;-67
2021/08/11 05:15:56;;;;;;;31.85;18.40;;;;;;;12.80;100.00;101774.09;5072736;28;20052;-67
2021/08/11 05:18:21;;;;;;;31.83;18.58;;;;;;;12.83;100.00;101775.03;5072886;28;20020;-67
2021/08/11 05:20:47;;;;;;;33.17;18.50;;;;;;;12.82;100.00;101767.06;5072491;28;20105;-67
2021/08/11 05:23:12;;;;;;;31.65;17.85;;;;;;;12.87;100.00;101768.91;5072409;28;20124;-67
2021/08/11 05:25:38;;;;;;;30.67;18.67;;;;;;;12.88;100.00;101762.69;5072388;28;20581;-66
2021/08/11 05:28:03;;;;;;;30.55;18.30;;;;;;;12.90;100.00;101763.63;5063796;28;20037;-62
2021/08/11 05:30:29;;;;;;;29.83;17.33;;;;;;;12.96;100.00;101764.53;5069554;28;20029;-62
2021/08/11 05:32:54;;;;;;;32.13;18.63;;;;;;;13.00;100.00;101771.66;5071192;28;20406;-66
2021/08/11 05:35:20;;;;;;;34.53;18.88;;;;;;;13.04;100.00;101773.47;5070497;28;20020;-67
2021/08/11 05:37:45;;;;;;;32.33;18.83;;;;;;;13.05;100.00;101769.94;5068730;28;20371;-67
2021/08/11 05:40:11;;;;;;;33.42;20.00;;;;;;;13.13;100.00;101773.53;5068915;28;20052;-62
2021/08/11 05:42:37;;;;;;;34.15;20.55;;;;;;;13.17;100.00;101780.66;5063736;28;20029;-62
2021/08/11 05:45:03;;;;;;;33.95;19.60;;;;;;;13.23;100.00;101783.34;5068263;28;20035;-63
2021/08/11 05:47:28;;;;;;;32.50;18.77;;;;;;;13.28;100.00;101787.81;5072865;28;20116;-61
2021/08/11 05:49:54;;;;;;;34.00;19.23;;;;;;;13.32;100.00;101787.84;5071368;28;20107;-63
2021/08/11 05:52:19;;;;;;;32.38;19.40;;;;;;;13.42;100.00;101783.53;5078758;28;20103;-63
2021/08/11 05:54:45;;;;;;;33.72;19.50;;;;;;;13.49;100.00;101789.78;5078986;28;20031;-62
2021/08/11 05:57:10;;;;;;;35.80;21.00;;;;;;;13.50;100.00;101788.88;5081190;28;20050;-63
2021/08/11 05:59:36;;;;;;;34.85;20.60;;;;;;;13.55;100.00;101792.47;5082027;28;20507;-61
2021/08/11 06:02:01;;;;;;;38.65;22.02;;;;;;;13.59;100.00;101787.19;5081908;28;20442;-62
2021/08/11 06:04:28;;;;;;;38.40;22.50;;;;;;;13.64;100.00;101789.88;5078989;28;20417;-61
2021/08/11 06:06:53;;;;;;;40.67;22.77;;;;;;;13.75;100.00;101790.84;5079356;28;20120;-61
2021/08/11 06:09:19;;;;;;;41.17;22.88;;;;;;;13.82;100.00;101797.09;5079256;28;20056;-61
2021/08/11 06:11:45;;;;;;;40.85;23.35;;;;;;;13.86;100.00;101796.25;5079391;28;20082;-61
2021/08/11 06:14:11;;;;;;;42.42;23.85;;;;;;;13.95;100.00;101806.03;5080960;28;20017;-61
2021/08/11 06:16:37;;;;;;;42.70;23.92;;;;;;;14.01;100.00;101816.69;5079317;28;20047;-62
2021/08/11 06:19:03;;;;;;;39.75;22.70;;;;;;;14.07;100.00;101815.84;5077973;28;20017;-61
2021/08/11 06:21:28;;;;;;;43.15;24.65;;;;;;;14.16;100.00;101823.84;5078723;28;20072;-61
2021/08/11 06:23:54;;;;;;;42.90;23.55;;;;;;;14.26;100.00;101825.69;5081205;28;20513;-62
2021/08/11 06:26:20;;;;;;;40.88;23.38;;;;;;;14.36;100.00;101820.38;5080161;28;20052;-61
2021/08/11 06:28:46;;;;;;;40.90;22.92;;;;;;;14.50;100.00;101831.97;5078266;28;20039;-61
2021/08/11 06:31:14;;;;;;;40.72;23.60;;;;;;;14.72;100.00;101834.75;5079820;28;20012;-61
2021/08/11 06:33:40;;;;;;;41.28;23.77;;;;;;;14.98;100.00;101829.47;5080088;28;20476;-61
2021/08/11 06:36:05;;;;;;;40.65;23.83;;;;;;;15.05;100.00;101833.94;5079985;28;20078;-60
2021/08/11 06:38:31;;;;;;;41.78;24.15;;;;;;;15.07;100.00;101832.19;5079631;28;20061;-62
2021/08/11 06:40:56;;;;;;;42.25;23.77;;;;;;;15.15;100.00;101833.06;5076582;28;20032;-60
2021/08/11 06:43:21;;;;;;;39.90;23.63;;;;;;;15.22;100.00;101830.38;5077536;28;20052;-67
2021/08/11 06:45:47;;;;;;;40.60;23.98;;;;;;;15.27;100.00;101836.63;5079191;28;20387;-66
2021/08/11 06:48:13;;;;;;;40.10;23.20;;;;;;;15.45;100.00;101839.28;5080710;28;20067;-67
2021/08/11 06:50:38;;;;;;;40.78;22.48;;;;;;;15.58;100.00;101837.53;5081997;28;20368;-68
2021/08/11 06:53:03;;;;;;;42.22;24.52;;;;;;;15.73;100.00;101844.59;5075291;28;20531;-67
2021/08/11 06:55:29;;;;;;;39.63;23.20;;;;;;;15.90;100.00;101839.28;5082114;28;20448;-66
2021/08/11 06:57:54;;;;;;;40.63;24.00;;;;;;;16.00;100.00;101843.72;5079055;28;20029;-67
2021/08/11 07:00:20;;;;;;;37.60;22.25;;;;;;;16.12;100.00;101842.78;5078998;28;20024;-67
2021/08/11 07:02:46;;;;;;;40.67;22.38;;;;;;;16.18;100.00;101845.44;5078695;28;20073;-62
2021/08/11 07:05:12;;;;;;;39.80;24.15;;;;;;;16.37;100.00;101845.38;5077156;28;20107;-65
2021/08/11 07:07:37;;;;;;;38.75;21.75;;;;;;;16.64;100.00;101839.00;5078961;28;20182;-66
2021/08/11 07:10:05;;;;;;;38.22;23.08;;;;;;;16.91;100.00;101855.81;5080246;28;20035;-67
2021/08/11 07:12:30;;;;;;;36.88;22.08;;;;;;;16.78;100.00;101849.63;5076727;28;20028;-65
2021/08/11 07:14:55;;;;;;;39.50;22.27;;;;;;;16.58;100.00;101844.38;5079012;28;20093;-61
2021/08/11 07:17:21;;;;;;;38.25;23.67;;;;;;;16.48;100.00;101845.31;5077784;28;20387;-61
2021/08/11 07:19:46;;;;;;;37.83;22.77;;;;;;;16.42;100.00;101837.34;5076722;28;20498;-68
2021/08/11 07:22:12;;;;;;;38.58;21.73;;;;;;;16.34;100.00;101850.72;5077102;28;20497;-68
2021/08/11 07:24:38;;;;;;;36.55;21.88;;;;;;;16.29;100.00;101845.38;5078651;28;20157;-68
2021/08/11 07:27:04;;;;;;;36.10;21.15;;;;;;;16.28;100.00;101843.63;5079711;28;20107;-68
2021/08/11 07:29:30;;;;;;;36.58;20.75;;;;;;;16.27;100.00;101841.84;5077661;28;20078;-68
2021/08/11 07:31:55;;;;;;;33.45;19.85;;;;;;;16.36;100.00;101840.91;5079179;28;20048;-67
2021/08/11 07:34:21;;;;;;;34.53;20.33;;;;;;;16.41;100.00;101838.22;5075142;28;20050;-68
2021/08/11 07:36:46;;;;;;;35.28;19.65;;;;;;;16.44;100.00;101838.22;5080423;28;20028;-65
2021/08/11 07:39:11;;;;;;;35.55;20.38;;;;;;;16.52;98.27;101841.75;5079451;28;20025;-66
2021/08/11 07:41:37;;;;;;;33.30;19.00;;;;;;;16.52;99.38;101831.06;5081323;28;20036;-66
2021/08/11 07:44:02;;;;;;;34.78;19.38;;;;;;;16.55;100.00;101831.94;5079771;28;20047;-66
2021/08/11 07:46:29;;;;;;;32.88;19.38;;;;;;;16.62;100.00;101832.78;5078571;28;20498;-66
2021/08/11 07:48:54;;;;;;;33.88;19.30;;;;;;;16.68;100.00;101832.75;5073830;28;20100;-66
2021/08/11 07:51:20;;;;;;;35.45;20.45;;;;;;;16.79;100.00;101835.38;5073791;28;20108;-66
2021/08/11 07:53:45;;;;;;;32.40;18.70;;;;;;;16.84;98.05;101838.91;5073965;28;20020;-66
2021/08/11 07:56:10;;;;;;;34.42;18.80;;;;;;;16.95;100.00;101843.31;5073849;28;20028;-69
2021/08/11 07:58:36;;;;;;;33.80;19.42;;;;;;;17.03;98.33;101839.69;5075857;28;20365;-66
2021/08/11 08:01:01;;;;;;;32.25;17.35;;;;;;;17.13;93.35;101839.66;5075296;28;20016;-66
2021/08/11 08:03:27;;;;;;;32.90;18.42;;;;;;;17.16;91.74;101840.50;5077454;28;20035;-67
2021/08/11 08:05:52;;;;;;;34.38;19.48;;;;;;;17.31;94.91;101846.63;5076606;28;20025;-66
2021/08/11 08:08:17;;;;;;;33.97;19.25;;;;;;;17.37;91.13;101843.91;5076815;28;20481;-67
2021/08/11 08:10:43;;;;;;;32.30;18.65;;;;;;;17.56;90.98;101844.63;5075906;28;20033;-69
2021/08/11 08:13:08;;;;;;;33.90;19.52;;;;;;;17.64;90.69;101844.59;5076436;28;20025;-67
2021/08/11 08:15:34;;;;;;;34.50;19.52;;;;;;;17.92;89.52;101845.22;5078882;28;20030;-67
2021/08/11 08:17:59;;;;;;;32.05;20.15;;;;;;;18.29;88.79;101848.38;5076757;28;20021;-66
2021/08/11 08:20:25;;;;;;;32.63;19.55;;;;;;;18.60;82.16;101842.63;5077937;28;20076;-68
2021/08/11 08:22:50;;;;;;;29.67;16.85;;;;;;;19.11;80.12;101843.72;5078442;28;20043;-68
2021/08/11 08:25:21;;;;;;;32.33;18.95;;;;;;;19.19;78.22;101843.59;5076419;28;20184;-67
2021/08/11 08:27:49;;;;;;;34.25;19.25;;;;;;;19.23;79.44;101837.28;5079294;28;20559;-67
2021/08/11 08:30:15;;;;;;;30.70;18.73;;;;;;;19.27;76.73;101836.34;5079345;28;20029;-61
2021/08/11 08:32:41;;;;;;;31.65;18.75;;;;;;;19.38;79.05;101836.16;5074489;28;20439;-61
2021/08/11 08:35:07;;;;;;;32.08;18.48;;;;;;;19.30;79.19;101837.16;5075549;28;20032;-62
2021/08/11 08:37:37;;;;;;;29.40;16.63;;;;;;;19.25;73.15;101841.72;5079630;28;20502;-63
2021/08/11 08:40:12;;;;;;;30.40;17.58;;;;;;;19.31;74.58;101840.75;5076391;28;20280;-64
2021/08/11 08:42:38;;;;;;;29.60;17.20;;;;;;;19.34;72.55;101846.94;5078256;28;20027;-63
2021/08/11 08:45:05;;;;;;;30.17;17.65;;;;;;;19.56;74.14;101845.69;5078927;28;20063;-64
2021/08/11 08:47:31;;;;;;;31.70;20.05;;;;;;;19.58;74.62;101851.91;5068660;28;20021;-63
2021/08/11 08:49:57;;;;;;;31.48;19.25;;;;;;;19.92;74.79;101854.00;5072636;28;20021;-64
2021/08/11 08:52:22;;;;;;;30.75;17.35;;;;;;;20.13;68.82;101853.59;5073011;28;20031;-65
2021/08/11 08:54:48;;;;;;;29.75;17.70;;;;;;;20.16;70.67;101848.16;5072632;28;20025;-63
2021/08/11 08:57:16;;;;;;;29.55;16.35;;;;;;;20.66;67.74;101855.19;5073059;28;20032;-65
2021/08/11 08:59:43;;;;;;;28.02;15.98;;;;;;;20.94;64.15;101850.13;5073050;28;20317;-65
2021/08/11 09:02:13;;;;;;;27.25;15.23;;;;;;;21.41;64.39;101849.91;5072461;28;20029;-66
2021/08/11 09:04:41;;;;;;;29.10;16.10;;;;;;;21.97;60.79;101861.94;5072390;28;20128;-61
2021/08/11 09:07:15;;;;;;;29.10;15.40;;;;;;;22.16;61.84;101856.91;5072885;28;20095;-63
2021/08/11 09:09:41;;;;;;;27.42;14.48;;;;;;;22.66;58.94;101853.69;5072468;28;20078;-63
2021/08/11 09:12:13;;;;;;;28.55;14.18;;;;;;;23.18;57.34;101865.56;5072079;28;20021;-64
2021/08/11 09:14:41;;;;;;;28.85;14.23;;;;;;;22.96;55.54;101865.34;5066628;28;20044;-63
2021/08/11 09:17:07;;;;;;;28.38;14.20;;;;;;;22.12;57.61;101856.13;5072776;28;20020;-62
2021/08/11 09:19:41;;;;;;;27.10;13.55;;;;;;;21.62;60.41;101861.94;5072460;28;20025;-63
2021/08/11 09:22:09;;;;;;;28.67;13.80;;;;;;;21.73;61.48;101854.47;5072678;28;20028;-65
2021/08/11 09:24:36;;;;;;;28.95;14.63;;;;;;;22.47;60.45;101854.28;5068312;28;20032;-63
2021/08/11 09:27:21;;;;;;;28.23;14.25;;;;;;;23.52;59.35;101855.47;5066515;28;20032;-65
2021/08/11 09:30:11;;;;;;;25.95;13.65;;;;;;;23.89;56.45;101847.00;5065013;28;20025;-63
2021/08/11 09:32:58;;;;;;;26.35;14.65;;;;;;;24.12;54.97;101845.31;5068326;28;20028;-65
2021/08/11 09:35:27;;;;;;;26.65;13.15;;;;;;;24.47;51.76;101851.19;5068247;28;20608;-62
2021/08/11 09:37:55;;;;;;;26.35;12.43;;;;;;;24.62;51.85;101849.75;5066755;28;20050;-67
2021/08/11 09:40:26;;;;;;;26.23;12.80;;;;;;;25.58;49.31;101846.78;5069681;28;20028;-67
2021/08/11 09:42:55;;;;;;;24.60;11.65;;;;;;;25.75;47.25;101844.19;5068082;28;20020;-70
2021/08/11 09:45:20;;;;;;;24.48;11.70;;;;;;;25.79;46.90;101844.06;5066897;28;20043;-69
2021/08/11 09:48:00;;;;;;;23.25;9.82;;;;;;;25.95;46.51;101847.88;5071432;28;20017;-69
2021/08/11 09:50:45;;;;;;;23.45;10.98;;;;;;;25.87;45.42;101847.31;5066419;28;20028;-68
2021/08/11 09:53:12;;;;;;;23.65;10.75;;;;;;;26.25;43.34;101850.16;5068818;28;20037;-64
2021/08/11 09:56:09;;;;;;;22.38;9.32;;;;;;;26.78;46.44;101860.34;5067241;28;20490;-63
2021/08/11 09:58:39;;;;;;;21.65;9.18;;;;;;;27.21;42.89;101859.19;5069031;28;20380;-63
2021/08/11 10:01:16;;;;;;;19.73;6.80;;;;;;;27.77;41.20;101858.16;5066456;28;20023;-64
2021/08/11 10:03:55;;;;;;;19.73;7.20;;;;;;;28.46;41.21;101855.44;5064191;28;20036;-62
2021/08/11 10:06:27;;;;;;;19.50;7.03;;;;;;;28.92;38.55;101854.69;5068503;28;20028;-69
2021/08/11 10:08:54;;;;;;;19.17;6.32;;;;;;;28.38;38.03;101858.56;5073415;28;20031;-70
2021/08/11 10:11:39;;;;;;;19.58;6.50;;;;;;;27.40;42.00;101861.91;5078210;28;20081;-70
2021/08/11 10:14:08;;;;;;;16.70;4.72;;;;;;;26.13;41.55;101867.84;5076265;28;20036;-70
2021/08/11 10:16:34;;;;;;;17.58;5.75;;;;;;;24.64;43.54;101862.28;5079344;28;20435;-66
2021/08/11 10:19:06;;;;;;;15.15;4.47;;;;;;;23.75;45.42;101863.69;5079259;28;20062;-68
2021/08/11 10:21:33;;;;;;;16.90;4.75;;;;;;;23.46;46.75;101868.25;5073033;28;20486;-67
2021/08/11 10:24:03;;;;;;;17.70;5.97;;;;;;;22.94;48.88;101868.09;5076116;28;20020;-68
2021/08/11 10:26:29;;;;;;;19.55;7.20;;;;;;;22.59;50.77;101867.34;5073922;28;20039;-68
2021/08/11 10:28:54;;;;;;;19.50;6.47;;;;;;;22.59;50.10;101869.19;5076152;28;20020;-62
2021/08/11 10:31:21;;;;;;;19.08;6.38;;;;;;;24.50;47.48;101862.75;5079826;28;20036;-61
2021/08/11 10:33:50;;;;;;;19.33;7.03;;;;;;;25.68;44.63;101866.22;5079301;28;20115;-62
2021/08/11 10:36:16;;;;;;;18.42;6.47;;;;;;;25.18;43.58;101872.78;5075424;28;20051;-62
2021/08/11 10:38:46;;;;;;;18.85;6.20;;;;;;;25.57;44.05;101866.66;5075080;28;20025;-62
2021/08/11 10:41:12;;;;;;;19.52;7.75;;;;;;;26.06;41.88;101861.81;5077030;28;20027;-62
2021/08/11 10:43:39;;;;;;;19.25;6.90;;;;;;;27.08;42.06;101865.22;5078543;28;20368;-62
2021/08/11 10:46:13;;;;;;;19.80;6.97;;;;;;;27.58;40.81;101866.41;5081433;28;20031;-63
2021/08/11 10:48:38;;;;;;;20.25;7.38;;;;;;;26.75;40.94;101865.03;5080047;28;20016;-62
2021/08/11 10:51:04;;;;;;;20.98;8.18;;;;;;;25.98;42.80;101869.41;5081344;28;20031;-62
2021/08/11 10:53:29;;;;;;;19.95;7.10;;;;;;;27.07;41.03;101877.03;5081657;28;20020;-62
2021/08/11 10:55:56;;;;;;;19.52;7.15;;;;;;;26.35;41.65;101867.75;5080056;28;20028;-63
2021/08/11 10:58:35;;;;;;;18.48;6.70;;;;;;;25.90;43.09;101866.16;5081228;28;20466;-63
2021/08/11 11:01:01;;;;;;;19.27;6.85;;;;;;;26.02;42.77;101868.34;5081574;28;20024;-62
2021/08/11 11:03:51;;;;;;;18.27;6.00;;;;;;;25.42;43.59;101868.19;5080674;28;20535;-62
2021/08/11 11:06:18;;;;;;;18.63;5.43;;;;;;;25.29;43.80;101864.22;5075561;28;20040;-62